Time;durP1;ratioP1;P1;durP2;ratioP2;P2;SDS_P1;SDS_P2;PMS_P1;PMS_P2;Temp;Humidity;BMP_temperature;BMP_pressure;BME280_temperature;BME280_humidity;BME280_pressure;Samples;Min_cycle;Max_cycle;Signal;HPM_P1;HPM_P2
2021/08/03 00:02:22;;;;;;;2.00;1.90;;;17.10;99.90;;;;;;10303878;28;20200;-82
2021/08/03 00:07:27;;;;;;;3.20;2.90;;;17.10;99.90;;;;;;10282821;28;20266;-82
2021/08/03 00:12:29;;;;;;;2.97;2.77;;;17.10;99.90;;;;;;10280279;28;20196;-82
2021/08/03 00:17:33;;;;;;;2.80;2.30;;;17.10;99.90;;;;;;10287342;28;20290;-82
2021/08/03 00:22:37;;;;;;;2.13;1.93;;;17.10;99.90;;;;;;10303728;28;20644;-82
2021/08/03 00:27:41;;;;;;;2.53;2.43;;;17.20;99.90;;;;;;10272309;28;20220;-82
2021/08/03 00:32:45;;;;;;;2.90;2.70;;;17.20;99.90;;;;;;10270952;28;20269;-82
2021/08/03 00:37:48;;;;;;;2.80;2.57;;;17.20;99.90;;;;;;10265592;28;20235;-82
2021/08/03 00:42:50;;;;;;;3.30;3.10;;;17.20;99.90;;;;;;10297363;28;20196;-82
2021/08/03 00:47:55;;;;;;;3.03;2.83;;;17.30;99.90;;;;;;10283782;28;20219;-82
2021/08/03 00:52:58;;;;;;;3.93;3.53;;;17.30;99.90;;;;;;10290722;28;20227;-82
2021/08/03 00:58:08;;;;;;;3.10;2.90;;;17.30;99.90;;;;;;10282994;23;20258;-83
2021/08/03 04:11:04;;;;;;;2.70;2.40;;;16.60;99.90;;;;;;9928741;24;20252;-84
2021/08/03 05:30:34;;;;;;;2.97;2.77;;;17.10;99.90;;;;;;9728621;30;20225;-84
2021/08/03 05:35:37;;;;;;;3.07;2.87;;;17.20;99.90;;;;;;9698546;30;20252;-84
2021/08/03 05:40:39;;;;;;;3.03;2.73;;;17.20;99.90;;;;;;9714109;30;20245;-84
2021/08/03 05:45:44;;;;;;;4.40;3.00;;;17.30;99.90;;;;;;9729204;30;20567;-84
2021/08/03 05:50:46;;;;;;;2.60;2.50;;;17.30;99.90;;;;;;9744607;30;20218;-84
2021/08/03 05:55:48;;;;;;;3.20;3.00;;;17.40;99.90;;;;;;9723790;30;20292;-84
2021/08/03 06:00:52;;;;;;;2.93;2.10;;;17.50;99.90;;;;;;9724937;30;20236;-84
2021/08/03 06:05:55;;;;;;;3.20;2.23;;;17.50;99.90;;;;;;9708935;30;20242;-84
2021/08/03 06:11:03;;;;;;;6.10;2.40;;;17.50;99.90;;;;;;9709079;30;20210;-83
2021/08/03 06:22:54;;;;;;;2.30;2.10;;;17.90;99.90;;;;;;9715390;30;20210;-84
2021/08/03 06:28:37;;;;;;;4.53;3.40;;;18.10;99.90;;;;;;9721833;30;20218;-84
2021/08/03 06:34:43;;;;;;;3.00;2.80;;;18.30;99.90;;;;;;9712459;30;20217;-84
2021/08/03 06:40:16;;;;;;;2.63;2.43;;;18.40;99.90;;;;;;9691341;30;20237;-84
2021/08/03 06:52:10;;;;;;;4.07;2.27;;;18.70;99.90;;;;;;9641504;30;20304;-84
2021/08/03 06:57:15;;;;;;;2.80;2.53;;;18.90;99.90;;;;;;9794662;24;20244;-82
2021/08/03 07:02:25;;;;;;;2.60;2.33;;;19.20;99.90;;;;;;9791082;30;20216;-82
2021/08/03 07:07:28;;;;;;;2.50;2.30;;;19.40;99.90;;;;;;9787599;30;20893;-83
2021/08/03 07:12:31;;;;;;;2.47;2.27;;;19.60;99.90;;;;;;9757182;30;20205;-82
2021/08/03 07:17:35;;;;;;;2.20;2.10;;;19.70;99.90;;;;;;9759289;30;20229;-82
2021/08/03 07:22:39;;;;;;;2.90;2.03;;;19.80;99.90;;;;;;9778179;30;20216;-82
2021/08/03 07:27:42;;;;;;;2.30;2.10;;;20.10;99.90;;;;;;9787757;30;20233;-81
2021/08/03 07:32:44;;;;;;;3.13;2.40;;;20.30;99.90;;;;;;9787478;30;20197;-82
2021/08/03 07:37:47;;;;;;;2.33;2.13;;;20.50;99.90;;;;;;9796190;30;20225;-82
2021/08/03 07:42:49;;;;;;;2.07;1.97;;;20.80;99.90;;;;;;9813730;30;20225;-82
2021/08/03 07:47:52;;;;;;;2.40;2.30;;;20.90;99.90;;;;;;9796329;30;20228;-82
2021/08/03 07:52:55;;;;;;;2.53;2.43;;;21.00;99.90;;;;;;9793143;30;20311;-82
2021/08/03 07:57:58;;;;;;;4.80;2.23;;;21.00;99.90;;;;;;9786289;30;20244;-82
2021/08/03 08:03:01;;;;;;;2.30;2.20;;;21.10;99.90;;;;;;9798875;30;20581;-82
2021/08/03 08:08:06;;;;;;;2.40;2.20;;;21.30;99.90;;;;;;9770961;30;20225;-82
2021/08/03 08:13:08;;;;;;;3.27;1.83;;;21.30;99.90;;;;;;9793090;30;20693;-82
2021/08/03 08:18:10;;;;;;;4.27;2.60;;;21.40;99.90;;;;;;9802855;30;20229;-83
2021/08/03 08:23:17;;;;;;;2.10;2.00;;;21.50;99.90;;;;;;9783697;30;20217;-83
2021/08/03 08:28:19;;;;;;;1.97;1.87;;;21.60;99.90;;;;;;9785878;30;20229;-83
2021/08/03 08:33:21;;;;;;;2.07;1.97;;;21.50;99.90;;;;;;9815538;30;20220;-83
2021/08/03 08:38:25;;;;;;;3.40;1.93;;;21.50;99.90;;;;;;9777295;30;20263;-83
2021/08/03 08:43:27;;;;;;;2.20;2.00;;;21.40;99.90;;;;;;9796088;30;20271;-83
2021/08/03 08:48:30;;;;;;;2.20;2.10;;;21.50;99.90;;;;;;9804912;30;20825;-83
2021/08/03 08:53:35;;;;;;;4.50;2.10;;;21.60;99.90;;;;;;9795956;30;20216;-83
2021/08/03 08:58:38;;;;;;;3.53;2.30;;;21.60;99.90;;;;;;9798955;30;20260;-83
2021/08/03 09:03:41;;;;;;;3.90;2.10;;;21.80;99.90;;;;;;9781018;30;20291;-83
2021/08/03 09:08:46;;;;;;;2.70;2.43;;;21.90;99.90;;;;;;9774946;30;20668;-83
2021/08/03 09:13:51;;;;;;;2.27;2.10;;;22.10;99.90;;;;;;9788746;30;20684;-82
2021/08/03 09:18:54;;;;;;;2.30;2.20;;;22.20;99.90;;;;;;9802485;30;20709;-82
2021/08/03 09:24:00;;;;;;;4.60;2.40;;;22.20;99.90;;;;;;9792223;30;20270;-83
2021/08/03 09:29:04;;;;;;;3.20;2.27;;;22.00;99.90;;;;;;9776569;30;20251;-83
2021/08/03 09:34:14;;;;;;;3.00;2.80;;;21.80;99.90;;;;;;9792122;30;20224;-83
2021/08/03 09:39:37;;;;;;;4.27;3.37;;;21.40;99.90;;;;;;9788932;30;20264;-83
2021/08/03 09:44:49;;;;;;;2.63;2.43;;;21.00;99.90;;;;;;9807312;30;20792;-82
2021/08/03 09:49:53;;;;;;;2.00;1.90;;;20.50;99.90;;;;;;9791432;30;20736;-82
2021/08/03 09:55:10;;;;;;;2.10;2.00;;;20.10;99.90;;;;;;9805517;30;20659;-82
2021/08/03 10:00:34;;;;;;;2.10;2.00;;;19.90;99.90;;;;;;9792836;30;20275;-83
2021/08/03 10:05:37;;;;;;;5.00;1.93;;;19.60;99.90;;;;;;9789907;30;20262;-83
2021/08/03 10:10:40;;;;;;;2.73;2.53;;;19.50;99.90;;;;;;9789240;30;20292;-83
2021/08/03 10:15:42;;;;;;;2.33;2.23;;;19.40;99.90;;;;;;9785393;30;20303;-83
2021/08/03 10:20:47;;;;;;;2.27;2.07;;;19.50;99.90;;;;;;9784774;30;20284;-82
2021/08/03 10:25:51;;;;;;;3.87;2.23;;;19.50;99.90;;;;;;9785497;30;20744;-83
2021/08/03 10:30:56;;;;;;;2.00;1.90;;;19.60;99.90;;;;;;9801280;30;20295;-83
2021/08/03 10:35:59;;;;;;;2.90;2.20;;;19.70;99.90;;;;;;9806720;30;20255;-82
2021/08/03 10:41:25;;;;;;;3.20;2.50;;;19.90;99.90;;;;;;9781453;30;20592;-82
2021/08/03 10:46:36;;;;;;;2.80;2.60;;;19.90;99.90;;;;;;9764767;30;20575;-82
2021/08/03 10:51:44;;;;;;;1.97;1.87;;;20.00;99.90;;;;;;9789247;30;20656;-82
2021/08/03 10:57:21;;;;;;;2.43;2.23;;;20.30;99.90;;;;;;9790438;30;20331;-83
2021/08/03 11:02:42;;;;;;;9.70;2.30;;;20.60;99.90;;;;;;9798158;30;20205;-83
2021/08/03 11:07:45;;;;;;;2.40;2.20;;;20.30;99.90;;;;;;9802880;30;20828;-82
2021/08/03 11:12:49;;;;;;;2.43;2.33;;;20.40;99.90;;;;;;9817817;30;20388;-82
2021/08/03 11:17:53;;;;;;;2.60;2.37;;;20.50;99.90;;;;;;9811326;30;20232;-82
2021/08/03 11:22:55;;;;;;;2.50;2.40;;;20.70;99.90;;;;;;9808212;30;20218;-83
2021/08/03 11:28:08;;;;;;;3.00;2.70;;;20.90;99.90;;;;;;9810083;30;20232;-83
2021/08/03 11:33:24;;;;;;;3.10;2.40;;;21.00;99.90;;;;;;9743879;30;20248;-83
2021/08/03 11:38:27;;;;;;;2.90;1.90;;;21.00;99.90;;;;;;9748483;30;20328;-83
2021/08/03 11:43:31;;;;;;;2.00;1.90;;;21.20;99.90;;;;;;9780416;30;20213;-83
2021/08/03 11:48:33;;;;;;;2.30;2.20;;;21.60;99.90;;;;;;9756855;30;20265;-83
2021/08/03 11:53:35;;;;;;;2.90;2.37;;;21.90;99.90;;;;;;9772586;30;20289;-83
2021/08/03 11:58:40;;;;;;;2.87;2.67;;;22.30;99.90;;;;;;9786230;30;20236;-82
2021/08/03 12:03:43;;;;;;;2.60;2.40;;;22.50;99.90;;;;;;9785750;30;20220;-83
2021/08/03 12:08:47;;;;;;;2.27;2.13;;;22.60;99.90;;;;;;9763207;30;20286;-83
2021/08/03 12:13:50;;;;;;;2.57;2.47;;;22.50;99.90;;;;;;9769366;30;20237;-83
2021/08/03 12:18:53;;;;;;;2.60;2.40;;;22.30;99.90;;;;;;9784572;30;20243;-83
2021/08/03 12:24:05;;;;;;;2.27;1.87;;;22.20;99.90;;;;;;9801778;30;20229;-83
2021/08/03 12:29:08;;;;;;;2.50;2.30;;;22.10;99.90;;;;;;9771474;30;20224;-83
2021/08/03 12:34:12;;;;;;;2.00;1.90;;;22.00;99.90;;;;;;9815950;30;20208;-83
2021/08/03 12:39:20;;;;;;;1.77;1.67;;;22.00;99.90;;;;;;9787614;30;20668;-84
2021/08/03 12:44:32;;;;;;;1.60;1.50;;;21.90;99.90;;;;;;9773313;30;20232;-84
2021/08/03 12:49:35;;;;;;;2.30;2.20;;;21.80;99.90;;;;;;9786473;30;20706;-83
2021/08/03 12:54:38;;;;;;;2.40;1.50;;;21.90;99.90;;;;;;9784492;30;20288;-83
2021/08/03 12:59:43;;;;;;;1.90;1.80;;;22.00;99.90;;;;;;9820985;30;20232;-83
2021/08/03 13:04:46;;;;;;;1.80;1.70;;;22.10;99.90;;;;;;9811010;30;20208;-83
2021/08/03 13:09:48;;;;;;;1.50;1.40;;;22.10;99.90;;;;;;9831979;30;20237;-84
2021/08/03 13:14:52;;;;;;;1.80;1.70;;;22.10;99.90;;;;;;9808721;30;20213;-83
2021/08/03 13:19:55;;;;;;;1.80;1.70;;;22.00;99.90;;;;;;9806594;30;20283;-83
2021/08/03 13:24:57;;;;;;;2.00;1.90;;;21.70;99.90;;;;;;9799733;30;20280;-83
2021/08/03 13:30:00;;;;;;;2.27;2.10;;;21.60;99.90;;;;;;9785880;30;20229;-83
2021/08/03 13:35:03;;;;;;;4.27;1.57;;;21.50;99.90;;;;;;9799885;30;20213;-83
2021/08/03 13:40:07;;;;;;;1.40;1.30;;;21.50;99.90;;;;;;9842775;30;20233;-83
2021/08/03 13:45:12;;;;;;;1.60;1.50;;;21.60;99.90;;;;;;9800301;30;20212;-83
2021/08/03 13:50:14;;;;;;;1.60;1.50;;;21.60;99.90;;;;;;9805706;30;20216;-83
2021/08/03 13:55:16;;;;;;;2.53;2.33;;;21.70;99.90;;;;;;9786632;30;20228;-83
2021/08/03 14:00:20;;;;;;;2.20;2.10;;;21.70;99.90;;;;;;9785219;30;20308;-82
2021/08/03 14:05:22;;;;;;;1.80;1.70;;;21.70;99.90;;;;;;9797615;30;20189;-82
2021/08/03 14:10:24;;;;;;;2.00;1.90;;;21.60;99.90;;;;;;9801183;30;20212;-82
2021/08/03 14:15:28;;;;;;;5.47;2.10;;;21.50;99.90;;;;;;9795043;30;20593;-82
2021/08/03 14:20:30;;;;;;;1.90;1.80;;;21.40;99.90;;;;;;9780643;30;20306;-82
2021/08/03 14:25:32;;;;;;;1.73;1.63;;;21.20;99.90;;;;;;9778615;30;20767;-81
2021/08/03 14:30:37;;;;;;;1.70;1.60;;;21.20;99.90;;;;;;9812896;30;20216;-82
2021/08/03 14:35:39;;;;;;;1.83;1.73;;;21.30;99.90;;;;;;9776937;30;20233;-82
2021/08/03 14:40:42;;;;;;;2.00;1.90;;;21.40;99.90;;;;;;9809120;30;20220;-82
2021/08/03 14:45:45;;;;;;;2.03;1.83;;;21.50;99.90;;;;;;9778353;30;20294;-84
2021/08/03 14:50:48;;;;;;;1.90;1.80;;;21.50;99.90;;;;;;9796948;30;20208;-84
2021/08/03 14:55:50;;;;;;;1.83;1.60;;;21.50;99.90;;;;;;9766079;30;20248;-84
2021/08/03 15:00:53;;;;;;;1.60;1.50;;;21.50;99.90;;;;;;9767585;30;20726;-82
2021/08/03 15:05:56;;;;;;;1.70;1.60;;;21.50;99.90;;;;;;9786532;30;20702;-84
2021/08/03 15:10:58;;;;;;;3.37;2.03;;;21.60;99.90;;;;;;9780859;30;20212;-83
2021/08/03 15:16:01;;;;;;;2.10;2.00;;;21.60;99.90;;;;;;9764725;30;20232;-81
2021/08/03 15:21:03;;;;;;;1.90;1.70;;;21.50;99.90;;;;;;9764647;30;20736;-83
2021/08/03 15:26:07;;;;;;;2.00;1.90;;;21.40;99.90;;;;;;9767270;30;20229;-83
2021/08/03 15:31:10;;;;;;;3.30;3.10;;;21.40;99.90;;;;;;9767910;30;20674;-84
2021/08/03 15:36:13;;;;;;;2.23;2.10;;;21.30;99.90;;;;;;9798068;30;20776;-85
2021/08/03 15:41:16;;;;;;;3.60;3.07;;;21.30;99.90;;;;;;9783761;30;20319;-84
2021/08/03 15:46:19;;;;;;;13.73;8.43;;;21.30;99.90;;;;;;9785929;30;20267;-83
2021/08/03 15:51:22;;;;;;;2.10;2.00;;;21.30;99.90;;;;;;9800459;30;20303;-83
2021/08/03 15:56:24;;;;;;;6.10;4.10;;;21.30;99.90;;;;;;9799639;30;20714;-82
2021/08/03 16:01:27;;;;;;;41.97;19.83;;;21.30;99.90;;;;;;9785076;30;20232;-82
2021/08/03 16:06:29;;;;;;;5.33;3.17;;;21.30;99.90;;;;;;9799885;30;20237;-83
2021/08/03 16:11:32;;;;;;;9.20;5.43;;;21.30;99.90;;;;;;9803718;30;20288;-82
2021/08/03 16:16:36;;;;;;;47.37;22.20;;;21.40;99.90;;;;;;9801161;30;20236;-82
2021/08/03 16:21:44;;;;;;;13.53;7.90;;;21.40;99.90;;;;;;9786118;30;20272;-83
2021/08/03 16:26:47;;;;;;;8.47;5.80;;;21.50;99.90;;;;;;9788490;30;20237;-82
2021/08/03 16:31:53;;;;;;;3.30;2.93;;;21.50;99.90;;;;;;9773761;30;20240;-83
2021/08/03 16:37:02;;;;;;;3.20;2.87;;;21.50;99.90;;;;;;9771431;30;20236;-83
2021/08/03 16:42:04;;;;;;;2.57;2.37;;;21.60;99.90;;;;;;9773059;30;20643;-82
2021/08/03 16:47:08;;;;;;;2.10;2.00;;;21.60;99.90;;;;;;9786930;30;20626;-83
2021/08/03 16:52:11;;;;;;;6.07;4.40;;;21.50;99.90;;;;;;9784788;30;20208;-84
2021/08/03 16:57:13;;;;;;;2.23;2.13;;;21.50;99.90;;;;;;9772334;30;20244;-84
2021/08/03 17:02:23;;;;;;;1.80;1.70;;;21.40;99.90;;;;;;9785595;30;20663;-82
2021/08/03 17:07:42;;;;;;;2.03;1.93;;;21.40;99.90;;;;;;9799170;30;20236;-82
2021/08/03 17:12:48;;;;;;;2.40;2.30;;;21.30;99.90;;;;;;9780715;30;20785;-84
2021/08/03 17:18:01;;;;;;;2.37;2.17;;;21.10;99.90;;;;;;9797646;30;20691;-83
2021/08/03 17:23:09;;;;;;;1.90;1.80;;;20.90;99.90;;;;;;9785537;30;20251;-84
2021/08/03 17:28:11;;;;;;;2.00;1.90;;;20.80;99.90;;;;;;9770593;30;20251;-82
2021/08/03 17:33:17;;;;;;;2.17;2.00;;;20.80;99.90;;;;;;9786553;30;20201;-84
2021/08/03 17:38:21;;;;;;;2.57;2.37;;;20.70;99.90;;;;;;9778908;30;20673;-83
2021/08/03 17:43:24;;;;;;;2.03;1.83;;;20.60;99.90;;;;;;9768326;30;20352;-84
2021/08/03 17:48:32;;;;;;;1.73;1.63;;;20.50;99.90;;;;;;9795905;30;20608;-82
2021/08/03 17:53:36;;;;;;;2.03;1.93;;;20.30;99.90;;;;;;9785909;30;20267;-84
2021/08/03 17:58:39;;;;;;;2.60;1.80;;;20.30;99.90;;;;;;9793061;30;20243;-83
2021/08/03 18:03:43;;;;;;;1.43;1.40;;;20.10;99.90;;;;;;9838183;30;20212;-84
2021/08/03 18:08:46;;;;;;;2.20;2.00;;;20.00;99.90;;;;;;9823032;30;20228;-84
2021/08/03 18:13:55;;;;;;;2.00;1.90;;;19.90;99.90;;;;;;9819582;30;20270;-84
2021/08/03 18:18:59;;;;;;;1.53;1.43;;;19.80;99.90;;;;;;9770093;30;20229;-84
2021/08/03 18:24:02;;;;;;;2.00;1.90;;;19.80;99.90;;;;;;9767956;30;20239;-84
2021/08/03 18:29:06;;;;;;;2.20;2.00;;;19.70;99.90;;;;;;9766063;30;20279;-83
2021/08/03 18:34:32;;;;;;;7.27;6.57;;;19.70;99.90;;;;;;9767296;30;20311;-84
2021/08/03 18:39:36;;;;;;;3.20;2.53;;;19.60;99.90;;;;;;9817367;30;20259;-85
2021/08/03 18:44:42;;;;;;;3.00;1.93;;;19.60;99.90;;;;;;9818034;30;20210;-83
2021/08/03 18:49:46;;;;;;;2.73;2.10;;;19.60;99.90;;;;;;9803208;30;20713;-84
2021/08/03 18:54:50;;;;;;;2.10;2.00;;;19.50;99.90;;;;;;9802197;30;20220;-84
2021/08/03 18:59:54;;;;;;;2.50;2.40;;;19.50;99.90;;;;;;9773777;30;20251;-82
2021/08/03 19:04:58;;;;;;;2.70;2.27;;;19.50;99.90;;;;;;9780535;30;20288;-82
2021/08/03 19:10:04;;;;;;;2.50;2.30;;;19.40;99.90;;;;;;9780160;30;20232;-82
2021/08/03 19:15:09;;;;;;;3.10;2.80;;;19.40;99.90;;;;;;9783022;30;20205;-82
2021/08/03 19:20:13;;;;;;;2.83;2.53;;;19.30;99.90;;;;;;9772636;30;20707;-83
2021/08/03 19:25:17;;;;;;;4.80;3.07;;;19.30;99.90;;;;;;9770661;30;20221;-82
2021/08/03 19:30:25;;;;;;;3.40;2.40;;;19.30;99.90;;;;;;9803630;30;20231;-82
2021/08/03 19:35:32;;;;;;;2.67;2.47;;;19.30;99.90;;;;;;9784050;30;20624;-83
2021/08/03 19:40:34;;;;;;;2.50;2.40;;;19.30;99.90;;;;;;9787536;30;20291;-83
2021/08/03 19:45:36;;;;;;;2.90;2.63;;;19.30;99.90;;;;;;9830312;30;20232;-84
2021/08/03 19:50:42;;;;;;;2.67;2.57;;;19.20;99.90;;;;;;9808867;30;20201;-83
2021/08/03 19:55:46;;;;;;;4.60;2.70;;;19.20;99.90;;;;;;9785349;30;20669;-82
2021/08/03 20:00:50;;;;;;;2.67;2.57;;;19.20;99.90;;;;;;9798680;30;20220;-83
2021/08/03 20:05:54;;;;;;;2.57;2.37;;;19.20;99.90;;;;;;9813395;30;20323;-82
2021/08/03 20:10:58;;;;;;;2.70;2.50;;;19.20;99.90;;;;;;9789324;30;20271;-83
2021/08/03 20:16:00;;;;;;;2.20;2.10;;;19.20;99.90;;;;;;9779007;30;20229;-82
2021/08/03 20:21:05;;;;;;;2.53;2.43;;;19.20;99.90;;;;;;9798101;30;20224;-83
2021/08/03 20:26:10;;;;;;;2.53;2.43;;;19.20;99.90;;;;;;9766848;30;20780;-84
2021/08/03 20:31:15;;;;;;;2.50;2.40;;;19.20;99.90;;;;;;9788750;30;20219;-83
2021/08/03 20:36:20;;;;;;;1.93;1.83;;;19.30;99.90;;;;;;9804590;30;20295;-83
2021/08/03 20:41:25;;;;;;;2.57;2.47;;;19.30;99.90;;;;;;9788184;30;20298;-82
2021/08/03 20:46:32;;;;;;;2.50;2.40;;;19.30;99.90;;;;;;9772508;30;20718;-83
2021/08/03 20:51:38;;;;;;;2.53;2.33;;;19.30;99.90;;;;;;9782575;30;20209;-83
2021/08/03 20:56:41;;;;;;;4.40;2.30;;;19.20;99.90;;;;;;9768541;30;20248;-83
2021/08/03 21:01:48;;;;;;;3.13;2.47;;;19.20;99.90;;;;;;9799007;30;20282;-83
2021/08/03 21:06:55;;;;;;;2.77;2.57;;;19.20;99.90;;;;;;9799225;30;20722;-83
2021/08/03 21:11:57;;;;;;;2.30;2.20;;;19.20;99.90;;;;;;9783395;30;20276;-83
2021/08/03 21:16:59;;;;;;;2.40;2.30;;;19.10;99.90;;;;;;9782661;30;20242;-83
2021/08/03 21:22:21;;;;;;;2.67;2.47;;;19.20;99.90;;;;;;9783064;30;20221;-83
2021/08/03 21:27:42;;;;;;;2.57;2.43;;;19.20;99.90;;;;;;9781730;30;20242;-83
2021/08/03 21:33:03;;;;;;;2.70;2.50;;;19.10;99.90;;;;;;9794344;30;20212;-83
2021/08/03 21:38:25;;;;;;;2.93;2.73;;;19.10;99.90;;;;;;9811848;30;20221;-83
2021/08/03 21:43:46;;;;;;;2.80;2.67;;;19.10;99.90;;;;;;9808605;30;20213;-82
2021/08/03 21:49:08;;;;;;;2.67;2.57;;;19.10;99.90;;;;;;9813776;30;20608;-82
2021/08/03 21:54:11;;;;;;;2.60;2.50;;;19.00;99.90;;;;;;9787025;30;20624;-83
2021/08/03 21:59:13;;;;;;;4.90;3.00;;;19.00;99.90;;;;;;9782694;30;20244;-83
2021/08/03 22:04:15;;;;;;;5.40;3.60;;;19.00;99.90;;;;;;9783566;30;20232;-82
2021/08/03 22:09:27;;;;;;;2.80;2.60;;;19.00;99.90;;;;;;9805564;30;20244;-82
2021/08/03 22:14:29;;;;;;;2.80;2.60;;;19.00;99.90;;;;;;9769454;30;20577;-82
2021/08/03 22:19:31;;;;;;;2.50;2.40;;;19.00;99.90;;;;;;9796122;30;20236;-82
2021/08/03 22:24:35;;;;;;;2.93;2.73;;;18.90;99.90;;;;;;9797932;30;20219;-82
2021/08/03 22:29:37;;;;;;;3.17;2.90;;;18.90;99.90;;;;;;9781270;30;20289;-82
2021/08/03 22:34:39;;;;;;;3.43;3.10;;;18.90;99.90;;;;;;9781324;30;20212;-82
2021/08/03 22:39:43;;;;;;;3.13;2.93;;;18.90;99.90;;;;;;9768943;30;20232;-82
2021/08/03 22:44:45;;;;;;;2.73;2.53;;;18.90;99.90;;;;;;9796480;30;20197;-82
2021/08/03 22:49:47;;;;;;;2.73;2.63;;;18.80;99.90;;;;;;9781193;30;20615;-81
2021/08/03 22:54:50;;;;;;;2.70;2.50;;;18.80;99.90;;;;;;9818190;30;20205;-81
2021/08/03 22:59:53;;;;;;;2.40;2.20;;;18.80;99.90;;;;;;9787543;30;20712;-82
2021/08/03 23:04:55;;;;;;;2.87;2.67;;;18.80;99.90;;;;;;9812931;30;20675;-82
2021/08/03 23:09:58;;;;;;;2.57;2.37;;;18.70;99.90;;;;;;9784024;30;20248;-83
2021/08/03 23:15:01;;;;;;;3.20;3.00;;;18.70;99.90;;;;;;9802354;30;20231;-82
2021/08/03 23:20:03;;;;;;;2.63;2.43;;;18.70;99.90;;;;;;9785798;30;20236;-83
2021/08/03 23:25:07;;;;;;;2.70;2.50;;;18.60;99.90;;;;;;9787494;30;20686;-82
2021/08/03 23:30:10;;;;;;;2.77;2.57;;;18.60;99.90;;;;;;9786614;30;20703;-82
2021/08/03 23:35:13;;;;;;;4.53;2.70;;;18.50;99.90;;;;;;9786591;30;20212;-83
2021/08/03 23:40:16;;;;;;;3.73;2.73;;;18.50;99.90;;;;;;9805967;30;20229;-83
2021/08/03 23:45:18;;;;;;;2.97;2.60;;;18.40;99.90;;;;;;9772515;30;20213;-82
2021/08/03 23:50:20;;;;;;;3.97;2.30;;;18.30;99.90;;;;;;9775939;30;20232;-83
2021/08/03 23:55:24;;;;;;;2.60;2.43;;;18.20;99.90;;;;;;9788476;30;20223;-82
